Terminal Aerodrome Forecast
Issued by NWS Detroit/Pontiac, MI

Home | Current Version | Previous Version | Text Only | Print | Product List | Glossary On
Versions: 1 2 3 4 5 6 7 8 9 10 11 12 13 14 15 16
000
FTUS43 KDTX 302300
TAFFNT
TAF
KFNT 302320Z 3100/3124 20012KT 5SM -SHRA BKN040 OVC080
      TEMPO 3100/3102 25015G22KT 4SM TSRA OVC022CB
     FM310500 21012KT P6SM BKN030
     FM310800 23007KT 4SM BR BKN015 OVC025
     FM311300 23010KT P6SM BKN025
     FM311900 20006KT P6SM BKN040=

USA.gov is the U.S. government's official web portal to all federal, state and local government web resources and services.